Aérodrome :
LOGIN :

S'inscrire | Disclaimer

   EN    FR    IT 

 










Légende :    VFR   VFR Marginal   IFR   IFR Intensif   IFR Très Intensif
Visi : 
Plafond : 
>= 8 km
>= 3000ft
5 à 8 km
1000 à 3000 ft
1500m à 5 km
500 à 1000 ft
800 à 1500m
200 à 500 ft
< 800m
< 200 ft
Symboles :   Orages  Brouillard  Fortes neiges  Fortes précipitations  Vent > 20 kt
SIGMETs :   Divers  Orages  Givrage  Turbulence  Onde Orograph.  Cendres Volcan.







- Altitude de l'aérodrome : 9 ft
- Code IATA : MIR


DTMB - Habib Bourguliba Int. Monastir

DERNIER METAR :
  • 270300Z 23006KT CAVOK 16/11 Q1007

METARs EXPIRÉS :
  • 270230Z 22009KT CAVOK 17/11 Q1007
  • 270200Z AUTO 22010KT NCD 17/12 Q1007
  • 270130Z 22011KT CAVOK 18/12 A1DA:KK?(???(:H?TNH 270130Z AUTO 24011KT CAVOK 17/11 Q1007
  • 270100Z 23014KT CAVOK 18/12 Q1007
  • 270030Z 22012KT 9999 SCT048 19/12 Q1008

TAF TAF DTMB
Valide du 27 à 00h jusqu'au 28 à 00h UTC


262300Z 2700/2724 19006KT 9999 FEW034
PROB40
TEMPO 2702/2704 VRB20G30KT 4000 -SHRA FEW026CB
BECMG 2621/2623 23012KT
Pas de NOTAMs connus pour ce terrain.



MET'MAP, la Météo Aéronautique d'un coup d'oeil ! - Copyright ORBIFLY Décembre 2007 - Disclaimer

ORBIFLY MET'MAP TEAM :

Programmation & Développement : Alexandra Zaïnal
Conception & Développement : Baudouin d'Aumeries
Co-Programmation & Développement : Marc-Olivier Méhu
Soutien technique & logistique : Manuel Goepfert

Contact : metmap@orbifly.com




SOURCES & CREDITS :

   NOAA